CEST,Max TemperatureF,Mean TemperatureF,Min TemperatureF,Max Dew PointF,MeanDew PointF,Min DewpointF,Max Humidity, Mean Humidity, Min Humidity, Max Sea Level PressureIn, Mean Sea Level PressureIn, Min Sea Level PressureIn, Max VisibilityMiles, Mean VisibilityMiles, Min VisibilityMiles, Max Wind SpeedMPH, Mean Wind SpeedMPH, Max Gust SpeedMPH,PrecipitationIn, CloudCover, Events, WindDirDegrees
2014-3-1,44,37,30,34,30,28,93,81,54,29.66,29.59,29.53,10,4,1,11,4,,0.00,6,,149
2014-3-2,45,36,28,35,31,27,94,82,55,29.70,29.61,29.53,14,4,0,7,3,,0.00,6,Fog,200
2014-3-3,50,40,31,33,30,27,93,71,34,29.59,29.39,29.32,19,4,1,17,6,16,0.00,6,Fog,172
2014-3-4,42,37,32,38,34,28,93,84,75,29.79,29.58,29.42,6,4,1,7,4,17,0.08,7,Rain,346
2014-3-5,48,38,29,36,32,27,97,77,40,30.27,30.00,29.77,9,4,0,11,4,,0.00,5,Fog-Rain,334
2014-3-6,43,36,30,35,32,27,93,78,54,30.45,30.36,30.24,6,3,1,9,5,,0.00,6,,26
2014-3-7,51,38,25,35,30,25,96,74,39,30.46,30.31,30.24,5,2,0,6,2,17,0.00,4,Fog,213
2014-3-8,54,43,32,38,34,30,93,75,43,30.57,30.47,30.33,6,3,0,9,4,,0.00,5,Fog,9
2014-3-9,61,46,32,36,30,18,93,59,14,30.56,30.48,30.40,19,5,1,9,4,,0.00,,,140
2014-3-10,59,46,34,31,27,19,70,47,16,30.45,30.30,30.20,17,7,4,11,5,17,0.00,,,94
2014-3-11,55,42,28,37,30,25,87,61,23,30.53,30.39,30.27,10,5,0,17,5,,0.00,,,11
2014-3-12,54,42,30,37,33,28,100,70,37,30.57,30.48,30.42,11,4,0,9,5,,0.00,6,Fog,15
2014-3-13,60,45,30,32,28,23,85,50,17,30.48,30.37,30.27,12,7,4,9,3,17,0.00,,,225
2014-3-14,59,44,29,34,29,22,89,53,14,30.39,30.24,30.06,14,5,3,13,3,,0.00,,,235
2014-3-15,44,40,37,39,32,27,87,64,44,30.07,29.98,29.89,11,5,1,21,14,32,0.08,6,Rain,259
2014-3-16,47,43,39,44,40,32,93,86,68,30.04,29.95,29.86,11,5,3,28,19,39,0.00,8,Rain,249
2014-3-17,49,45,41,41,38,34,87,74,61,30.11,30.06,30.04,12,6,3,20,12,28,0.00,6,,250
2014-3-18,49,44,39,43,38,34,87,76,62,30.12,29.97,29.88,7,4,3,18,8,29,0.02,6,Rain,221
2014-3-19,47,44,41,41,38,36,87,79,71,30.25,30.11,29.92,19,7,3,18,14,30,0.08,7,Rain,248
2014-3-20,64,51,38,39,34,28,93,54,20,30.26,30.11,29.91,16,7,5,18,10,,0.00,8,,192
2014-3-21,64,56,47,42,35,30,66,44,20,29.95,29.86,29.74,19,10,6,22,12,34,0.00,6,Rain,218
2014-3-22,54,48,42,45,41,37,89,79,62,29.83,29.71,29.62,19,8,5,18,8,,0.08,7,Rain,208
2014-3-23,41,37,33,40,33,30,93,82,65,29.78,29.69,29.62,19,8,3,13,7,,0.08,6,Rain-Snow,254
2014-3-24,42,36,30,33,30,23,93,80,41,29.92,29.81,29.71,17,6,0,9,5,,0.04,6,Rain-Snow,321
2014-3-25,40,34,28,34,29,27,93,84,58,29.92,29.82,29.77,16,5,1,13,3,,0.08,5,Rain-Snow-Hail,343
2014-3-26,46,34,23,32,27,21,97,73,36,30.02,29.92,29.80,16,5,0,16,4,,0.00,5,Fog-Rain-Snow,76
2014-3-27,52,42,32,34,30,28,81,59,34,30.02,29.93,29.87,17,8,5,16,7,,0.00,5,,71
2014-3-28,49,40,32,38,33,29,94,74,50,30.22,30.07,29.98,11,5,0,10,5,,0.00,5,Fog-Rain,41
2014-3-29,60,45,30,42,37,30,96,68,29,30.26,30.17,30.09,9,4,1,13,5,,0.00,,Fog,108
2014-3-30,66,51,36,41,36,28,92,58,19,30.14,30.03,29.92,16,6,1,7,3,,0.00,8,,85
2014-3-31,59,48,38,42,37,32,88,65,32,30.01,29.96,29.89,7,5,3,7,2,,0.00,8,,6